sensor_id;sensor_type;location;lat;lon;timestamp;temperature;humidity
5192;DHT22;2615;44.524;11.284;2023-01-28T00:02:02;4.60;59.70
5192;DHT22;2615;44.524;11.284;2023-01-28T00:04:31;4.70;59.80
5192;DHT22;2615;44.524;11.284;2023-01-28T00:06:59;4.70;59.80
5192;DHT22;2615;44.524;11.284;2023-01-28T00:09:27;4.60;59.60
5192;DHT22;2615;44.524;11.284;2023-01-28T00:11:55;4.60;59.60
5192;DHT22;2615;44.524;11.284;2023-01-28T00:14:24;4.50;59.60
5192;DHT22;2615;44.524;11.284;2023-01-28T00:16:52;4.60;59.70
5192;DHT22;2615;44.524;11.284;2023-01-28T00:19:20;4.60;59.80
5192;DHT22;2615;44.524;11.284;2023-01-28T00:21:50;4.60;59.80
5192;DHT22;2615;44.524;11.284;2023-01-28T00:24:18;4.60;59.70
5192;DHT22;2615;44.524;11.284;2023-01-28T00:26:46;4.70;59.80
5192;DHT22;2615;44.524;11.284;2023-01-28T00:29:14;4.70;59.80
5192;DHT22;2615;44.524;11.284;2023-01-28T00:31:42;4.70;59.80
5192;DHT22;2615;44.524;11.284;2023-01-28T00:34:10;4.70;59.80
5192;DHT22;2615;44.524;11.284;2023-01-28T00:36:39;4.70;59.80
5192;DHT22;2615;44.524;11.284;2023-01-28T00:39:13;4.70;59.80
5192;DHT22;2615;44.524;11.284;2023-01-28T00:41:41;4.70;59.90
5192;DHT22;2615;44.524;11.284;2023-01-28T00:44:09;4.80;60.00
5192;DHT22;2615;44.524;11.284;2023-01-28T00:46:37;4.80;59.90
5192;DHT22;2615;44.524;11.284;2023-01-28T00:49:07;4.80;60.00
5192;DHT22;2615;44.524;11.284;2023-01-28T00:51:36;4.80;60.10
5192;DHT22;2615;44.524;11.284;2023-01-28T00:54:04;4.80;60.10
5192;DHT22;2615;44.524;11.284;2023-01-28T00:56:34;4.80;60.10
5192;DHT22;2615;44.524;11.284;2023-01-28T00:59:02;4.80;60.10
5192;DHT22;2615;44.524;11.284;2023-01-28T01:01:31;4.80;60.10
5192;DHT22;2615;44.524;11.284;2023-01-28T01:03:59;4.80;60.20
5192;DHT22;2615;44.524;11.284;2023-01-28T01:06:30;4.80;60.20
5192;DHT22;2615;44.524;11.284;2023-01-28T01:08:59;4.80;60.20
5192;DHT22;2615;44.524;11.284;2023-01-28T01:11:27;4.80;60.20
5192;DHT22;2615;44.524;11.284;2023-01-28T01:13:59;4.80;60.20
5192;DHT22;2615;44.524;11.284;2023-01-28T01:16:30;4.90;60.40
5192;DHT22;2615;44.524;11.284;2023-01-28T01:18:59;4.90;60.40
5192;DHT22;2615;44.524;11.284;2023-01-28T01:21:29;4.90;60.50
5192;DHT22;2615;44.524;11.284;2023-01-28T01:23:57;4.90;60.40
5192;DHT22;2615;44.524;11.284;2023-01-28T01:26:25;4.90;60.50
5192;DHT22;2615;44.524;11.284;2023-01-28T01:28:53;4.90;60.40
5192;DHT22;2615;44.524;11.284;2023-01-28T01:31:23;4.80;60.40
5192;DHT22;2615;44.524;11.284;2023-01-28T01:33:51;4.80;60.50
5192;DHT22;2615;44.524;11.284;2023-01-28T01:36:19;4.80;60.50
5192;DHT22;2615;44.524;11.284;2023-01-28T01:38:52;4.80;60.60
5192;DHT22;2615;44.524;11.284;2023-01-28T01:41:27;4.80;60.60
5192;DHT22;2615;44.524;11.284;2023-01-28T01:43:57;4.80;60.60
5192;DHT22;2615;44.524;11.284;2023-01-28T01:46:31;4.80;60.70
5192;DHT22;2615;44.524;11.284;2023-01-28T01:49:06;4.80;60.70
5192;DHT22;2615;44.524;11.284;2023-01-28T01:51:35;4.80;60.70
5192;DHT22;2615;44.524;11.284;2023-01-28T01:54:04;4.80;60.80
5192;DHT22;2615;44.524;11.284;2023-01-28T01:56:37;4.80;60.80
5192;DHT22;2615;44.524;11.284;2023-01-28T01:59:09;4.80;60.70
5192;DHT22;2615;44.524;11.284;2023-01-28T02:01:39;4.80;60.80
5192;DHT22;2615;44.524;11.284;2023-01-28T02:04:11;4.90;60.90
5192;DHT22;2615;44.524;11.284;2023-01-28T02:06:40;4.80;60.90
5192;DHT22;2615;44.524;11.284;2023-01-28T02:09:22;4.90;60.90
5192;DHT22;2615;44.524;11.284;2023-01-28T02:11:51;4.80;60.80
5192;DHT22;2615;44.524;11.284;2023-01-28T02:14:23;4.90;60.90
5192;DHT22;2615;44.524;11.284;2023-01-28T02:16:59;4.90;61.00
5192;DHT22;2615;44.524;11.284;2023-01-28T02:19:33;4.90;61.10
5192;DHT22;2615;44.524;11.284;2023-01-28T02:22:11;4.90;61.10
5192;DHT22;2615;44.524;11.284;2023-01-28T02:25:02;4.90;61.10
5192;DHT22;2615;44.524;11.284;2023-01-28T02:27:50;4.90;61.10
5192;DHT22;2615;44.524;11.284;2023-01-28T02:30:22;4.90;61.20
5192;DHT22;2615;44.524;11.284;2023-01-28T02:32:54;4.90;61.20
5192;DHT22;2615;44.524;11.284;2023-01-28T02:35:30;4.90;61.20
5192;DHT22;2615;44.524;11.284;2023-01-28T02:38:04;4.90;61.20
5192;DHT22;2615;44.524;11.284;2023-01-28T02:40:38;5.00;61.30
5192;DHT22;2615;44.524;11.284;2023-01-28T02:43:33;4.90;61.20
5192;DHT22;2615;44.524;11.284;2023-01-28T02:46:10;4.90;61.20
5192;DHT22;2615;44.524;11.284;2023-01-28T02:48:57;4.90;61.20
5192;DHT22;2615;44.524;11.284;2023-01-28T02:51:35;4.90;61.20
5192;DHT22;2615;44.524;11.284;2023-01-28T02:54:11;4.90;61.40
5192;DHT22;2615;44.524;11.284;2023-01-28T02:56:44;5.00;61.50
5192;DHT22;2615;44.524;11.284;2023-01-28T02:59:22;5.00;61.60
5192;DHT22;2615;44.524;11.284;2023-01-28T03:02:08;5.00;61.60
5192;DHT22;2615;44.524;11.284;2023-01-28T03:04:42;5.00;61.70
5192;DHT22;2615;44.524;11.284;2023-01-28T03:07:13;5.10;61.80
5192;DHT22;2615;44.524;11.284;2023-01-28T03:09:44;5.00;61.70
5192;DHT22;2615;44.524;11.284;2023-01-28T03:12:17;5.00;61.80
5192;DHT22;2615;44.524;11.284;2023-01-28T03:15:09;5.10;62.00
5192;DHT22;2615;44.524;11.284;2023-01-28T03:18:00;5.10;62.10
5192;DHT22;2615;44.524;11.284;2023-01-28T03:20:53;5.10;62.10
5192;DHT22;2615;44.524;11.284;2023-01-28T03:23:46;5.10;62.20
5192;DHT22;2615;44.524;11.284;2023-01-28T03:26:34;5.10;62.30
5192;DHT22;2615;44.524;11.284;2023-01-28T03:29:23;5.10;62.30
5192;DHT22;2615;44.524;11.284;2023-01-28T03:32:11;5.00;62.30
5192;DHT22;2615;44.524;11.284;2023-01-28T03:34:57;5.00;62.50
5192;DHT22;2615;44.524;11.284;2023-01-28T03:37:43;5.00;62.50
5192;DHT22;2615;44.524;11.284;2023-01-28T03:40:12;5.00;62.60
5192;DHT22;2615;44.524;11.284;2023-01-28T03:42:40;5.00;62.60
5192;DHT22;2615;44.524;11.284;2023-01-28T03:45:09;5.00;62.80
5192;DHT22;2615;44.524;11.284;2023-01-28T03:47:39;5.00;62.80
5192;DHT22;2615;44.524;11.284;2023-01-28T03:50:08;5.00;62.80
5192;DHT22;2615;44.524;11.284;2023-01-28T03:52:36;5.00;62.90
5192;DHT22;2615;44.524;11.284;2023-01-28T03:55:05;5.10;63.00
5192;DHT22;2615;44.524;11.284;2023-01-28T03:57:40;5.10;63.10
5192;DHT22;2615;44.524;11.284;2023-01-28T04:00:11;5.00;63.00
5192;DHT22;2615;44.524;11.284;2023-01-28T04:02:41;5.00;63.00
5192;DHT22;2615;44.524;11.284;2023-01-28T04:05:09;5.00;63.10
5192;DHT22;2615;44.524;11.284;2023-01-28T04:07:41;5.10;63.20
5192;DHT22;2615;44.524;11.284;2023-01-28T04:10:10;5.00;63.20
5192;DHT22;2615;44.524;11.284;2023-01-28T04:12:39;5.10;63.30
5192;DHT22;2615;44.524;11.284;2023-01-28T04:15:07;5.10;63.30
5192;DHT22;2615;44.524;11.284;2023-01-28T04:17:47;5.10;63.30
5192;DHT22;2615;44.524;11.284;2023-01-28T04:20:15;5.10;63.40
5192;DHT22;2615;44.524;11.284;2023-01-28T04:22:44;5.10;63.40
5192;DHT22;2615;44.524;11.284;2023-01-28T04:25:12;5.10;63.40
5192;DHT22;2615;44.524;11.284;2023-01-28T04:27:40;5.00;64.10
5192;DHT22;2615;44.524;11.284;2023-01-28T04:30:09;5.00;63.40
5192;DHT22;2615;44.524;11.284;2023-01-28T04:32:38;5.00;63.50
5192;DHT22;2615;44.524;11.284;2023-01-28T04:35:08;5.10;63.70
5192;DHT22;2615;44.524;11.284;2023-01-28T04:37:36;5.00;63.60
5192;DHT22;2615;44.524;11.284;2023-01-28T04:40:05;5.00;63.70
5192;DHT22;2615;44.524;11.284;2023-01-28T04:42:34;5.00;63.70
5192;DHT22;2615;44.524;11.284;2023-01-28T04:45:02;5.00;63.80
5192;DHT22;2615;44.524;11.284;2023-01-28T04:47:30;5.00;63.80
5192;DHT22;2615;44.524;11.284;2023-01-28T04:49:58;5.00;63.90
5192;DHT22;2615;44.524;11.284;2023-01-28T04:52:28;5.00;63.90
5192;DHT22;2615;44.524;11.284;2023-01-28T04:54:56;5.00;63.90
5192;DHT22;2615;44.524;11.284;2023-01-28T04:57:24;5.00;64.00
5192;DHT22;2615;44.524;11.284;2023-01-28T04:59:52;5.00;64.00
5192;DHT22;2615;44.524;11.284;2023-01-28T05:02:20;5.00;64.00
5192;DHT22;2615;44.524;11.284;2023-01-28T05:04:48;5.00;64.10
5192;DHT22;2615;44.524;11.284;2023-01-28T05:07:17;5.00;64.20
5192;DHT22;2615;44.524;11.284;2023-01-28T05:09:46;5.00;64.20
5192;DHT22;2615;44.524;11.284;2023-01-28T05:12:14;5.00;64.20
5192;DHT22;2615;44.524;11.284;2023-01-28T05:14:42;5.00;64.20
5192;DHT22;2615;44.524;11.284;2023-01-28T05:17:10;5.00;64.20
5192;DHT22;2615;44.524;11.284;2023-01-28T05:19:38;5.00;64.30
5192;DHT22;2615;44.524;11.284;2023-01-28T05:22:06;5.00;64.30
5192;DHT22;2615;44.524;11.284;2023-01-28T05:24:34;5.00;64.40
5192;DHT22;2615;44.524;11.284;2023-01-28T05:27:04;4.90;64.30
5192;DHT22;2615;44.524;11.284;2023-01-28T05:29:33;4.90;64.30
5192;DHT22;2615;44.524;11.284;2023-01-28T05:32:01;4.90;64.40
5192;DHT22;2615;44.524;11.284;2023-01-28T05:34:29;4.90;64.40
5192;DHT22;2615;44.524;11.284;2023-01-28T05:36:57;4.90;64.40
5192;DHT22;2615;44.524;11.284;2023-01-28T05:39:25;4.80;64.50
5192;DHT22;2615;44.524;11.284;2023-01-28T05:41:53;4.80;64.50
5192;DHT22;2615;44.524;11.284;2023-01-28T05:44:23;4.80;64.60
5192;DHT22;2615;44.524;11.284;2023-01-28T05:46:51;4.80;64.60
5192;DHT22;2615;44.524;11.284;2023-01-28T05:49:19;4.90;64.70
5192;DHT22;2615;44.524;11.284;2023-01-28T05:51:47;4.80;64.60
5192;DHT22;2615;44.524;11.284;2023-01-28T05:54:16;4.80;64.60
5192;DHT22;2615;44.524;11.284;2023-01-28T05:56:44;4.70;64.60
5192;DHT22;2615;44.524;11.284;2023-01-28T05:59:13;4.70;64.70
5192;DHT22;2615;44.524;11.284;2023-01-28T06:01:42;4.70;64.80
5192;DHT22;2615;44.524;11.284;2023-01-28T06:04:11;4.70;64.80
5192;DHT22;2615;44.524;11.284;2023-01-28T06:06:39;4.60;64.70
5192;DHT22;2615;44.524;11.284;2023-01-28T06:09:07;4.60;64.80
5192;DHT22;2615;44.524;11.284;2023-01-28T06:11:35;4.60;64.90
5192;DHT22;2615;44.524;11.284;2023-01-28T06:14:03;4.60;65.00
5192;DHT22;2615;44.524;11.284;2023-01-28T06:16:31;4.50;65.00
5192;DHT22;2615;44.524;11.284;2023-01-28T06:19:01;4.50;65.10
5192;DHT22;2615;44.524;11.284;2023-01-28T06:21:29;4.50;65.20
5192;DHT22;2615;44.524;11.284;2023-01-28T06:23:57;4.50;65.20
5192;DHT22;2615;44.524;11.284;2023-01-28T06:26:25;4.60;65.30
5192;DHT22;2615;44.524;11.284;2023-01-28T06:28:53;4.60;65.30
5192;DHT22;2615;44.524;11.284;2023-01-28T06:31:22;4.60;65.50
5192;DHT22;2615;44.524;11.284;2023-01-28T06:33:50;4.60;65.50
5192;DHT22;2615;44.524;11.284;2023-01-28T06:36:19;4.60;65.40
5192;DHT22;2615;44.524;11.284;2023-01-28T06:38:47;4.70;65.50
5192;DHT22;2615;44.524;11.284;2023-01-28T06:41:15;4.70;65.50
5192;DHT22;2615;44.524;11.284;2023-01-28T06:43:43;4.70;65.60
5192;DHT22;2615;44.524;11.284;2023-01-28T06:46:11;4.80;65.70
5192;DHT22;2615;44.524;11.284;2023-01-28T06:48:39;4.80;65.60
5192;DHT22;2615;44.524;11.284;2023-01-28T06:51:07;4.70;65.50
5192;DHT22;2615;44.524;11.284;2023-01-28T06:53:37;4.70;65.60
5192;DHT22;2615;44.524;11.284;2023-01-28T06:56:05;4.70;65.70
5192;DHT22;2615;44.524;11.284;2023-01-28T06:58:34;4.80;65.80
5192;DHT22;2615;44.524;11.284;2023-01-28T07:01:02;4.80;65.80
5192;DHT22;2615;44.524;11.284;2023-01-28T07:03:30;4.80;65.90
5192;DHT22;2615;44.524;11.284;2023-01-28T07:05:58;4.90;66.00
5192;DHT22;2615;44.524;11.284;2023-01-28T07:08:26;4.90;66.00
5192;DHT22;2615;44.524;11.284;2023-01-28T07:10:56;4.90;65.90
5192;DHT22;2615;44.524;11.284;2023-01-28T07:13:24;4.90;65.90
5192;DHT22;2615;44.524;11.284;2023-01-28T07:15:52;5.00;66.00
5192;DHT22;2615;44.524;11.284;2023-01-28T07:18:20;5.00;66.00
5192;DHT22;2615;44.524;11.284;2023-01-28T07:20:48;5.10;66.00
5192;DHT22;2615;44.524;11.284;2023-01-28T07:23:16;5.10;66.00
5192;DHT22;2615;44.524;11.284;2023-01-28T07:25:44;5.20;66.10
5192;DHT22;2615;44.524;11.284;2023-01-28T07:28:14;5.20;66.80
5192;DHT22;2615;44.524;11.284;2023-01-28T07:30:48;5.30;66.20
5192;DHT22;2615;44.524;11.284;2023-01-28T07:33:19;5.30;66.10
5192;DHT22;2615;44.524;11.284;2023-01-28T07:35:47;5.30;66.10
5192;DHT22;2615;44.524;11.284;2023-01-28T07:38:15;5.30;66.10
5192;DHT22;2615;44.524;11.284;2023-01-28T07:40:44;5.40;66.10
5192;DHT22;2615;44.524;11.284;2023-01-28T07:43:14;5.40;66.20
5192;DHT22;2615;44.524;11.284;2023-01-28T07:45:42;5.40;66.10
5192;DHT22;2615;44.524;11.284;2023-01-28T07:48:14;5.50;66.20
5192;DHT22;2615;44.524;11.284;2023-01-28T07:50:42;5.50;66.10
5192;DHT22;2615;44.524;11.284;2023-01-28T07:53:11;5.50;66.10
5192;DHT22;2615;44.524;11.284;2023-01-28T07:55:39;5.50;66.10
5192;DHT22;2615;44.524;11.284;2023-01-28T07:58:09;5.50;66.10
5192;DHT22;2615;44.524;11.284;2023-01-28T08:00:39;5.50;66.10
5192;DHT22;2615;44.524;11.284;2023-01-28T08:03:10;5.60;66.20
5192;DHT22;2615;44.524;11.284;2023-01-28T08:05:41;5.60;66.20
5192;DHT22;2615;44.524;11.284;2023-01-28T08:08:11;5.60;66.10
5192;DHT22;2615;44.524;11.284;2023-01-28T08:10:40;5.60;66.10
5192;DHT22;2615;44.524;11.284;2023-01-28T08:13:09;5.60;66.10
5192;DHT22;2615;44.524;11.284;2023-01-28T08:15:39;5.60;66.20
5192;DHT22;2615;44.524;11.284;2023-01-28T08:18:08;5.70;66.20
5192;DHT22;2615;44.524;11.284;2023-01-28T08:20:39;5.70;66.20
5192;DHT22;2615;44.524;11.284;2023-01-28T08:23:11;5.70;66.20
5192;DHT22;2615;44.524;11.284;2023-01-28T08:25:39;5.80;66.30
5192;DHT22;2615;44.524;11.284;2023-01-28T08:28:07;5.80;66.20
5192;DHT22;2615;44.524;11.284;2023-01-28T08:30:36;5.80;66.20
5192;DHT22;2615;44.524;11.284;2023-01-28T08:33:07;5.80;66.20
5192;DHT22;2615;44.524;11.284;2023-01-28T08:35:35;5.90;66.30
5192;DHT22;2615;44.524;11.284;2023-01-28T08:38:04;5.90;66.30
5192;DHT22;2615;44.524;11.284;2023-01-28T08:40:33;5.90;66.20
5192;DHT22;2615;44.524;11.284;2023-01-28T08:43:02;6.00;66.30
5192;DHT22;2615;44.524;11.284;2023-01-28T08:45:30;6.00;66.30
5192;DHT22;2615;44.524;11.284;2023-01-28T08:48:00;6.10;66.30
5192;DHT22;2615;44.524;11.284;2023-01-28T08:50:31;6.20;66.40
5192;DHT22;2615;44.524;11.284;2023-01-28T08:53:02;6.20;66.20
5192;DHT22;2615;44.524;11.284;2023-01-28T08:55:32;6.30;66.20
5192;DHT22;2615;44.524;11.284;2023-01-28T08:58:01;6.30;66.20
5192;DHT22;2615;44.524;11.284;2023-01-28T09:00:29;6.40;66.30
5192;DHT22;2615;44.524;11.284;2023-01-28T09:02:57;6.50;66.20
5192;DHT22;2615;44.524;11.284;2023-01-28T09:05:26;6.50;66.20
5192;DHT22;2615;44.524;11.284;2023-01-28T09:07:55;6.60;66.10
5192;DHT22;2615;44.524;11.284;2023-01-28T09:10:23;6.70;66.10
5192;DHT22;2615;44.524;11.284;2023-01-28T09:12:51;6.70;66.00
5192;DHT22;2615;44.524;11.284;2023-01-28T09:15:19;6.80;66.00
5192;DHT22;2615;44.524;11.284;2023-01-28T09:17:47;6.90;66.10
5192;DHT22;2615;44.524;11.284;2023-01-28T09:20:16;7.10;66.10
5192;DHT22;2615;44.524;11.284;2023-01-28T09:22:44;7.20;66.00
5192;DHT22;2615;44.524;11.284;2023-01-28T09:25:14;7.30;65.90
5192;DHT22;2615;44.524;11.284;2023-01-28T09:27:42;7.50;66.00
5192;DHT22;2615;44.524;11.284;2023-01-28T09:30:10;7.60;65.80
5192;DHT22;2615;44.524;11.284;2023-01-28T09:32:40;7.70;65.50
5192;DHT22;2615;44.524;11.284;2023-01-28T09:35:08;7.80;65.40
5192;DHT22;2615;44.524;11.284;2023-01-28T09:37:36;7.90;65.40
5192;DHT22;2615;44.524;11.284;2023-01-28T09:40:06;7.90;65.10
5192;DHT22;2615;44.524;11.284;2023-01-28T09:42:50;7.90;64.80
5192;DHT22;2615;44.524;11.284;2023-01-28T09:45:26;7.90;64.70
5192;DHT22;2615;44.524;11.284;2023-01-28T09:47:58;7.90;64.70
5192;DHT22;2615;44.524;11.284;2023-01-28T09:50:32;8.00;64.70
5192;DHT22;2615;44.524;11.284;2023-01-28T09:53:04;8.00;64.60
5192;DHT22;2615;44.524;11.284;2023-01-28T09:55:37;8.00;64.60
5192;DHT22;2615;44.524;11.284;2023-01-28T09:58:10;8.10;64.60
5192;DHT22;2615;44.524;11.284;2023-01-28T10:00:46;8.10;64.40
5192;DHT22;2615;44.524;11.284;2023-01-28T10:03:36;8.20;65.10
5192;DHT22;2615;44.524;11.284;2023-01-28T10:06:13;8.30;64.40
5192;DHT22;2615;44.524;11.284;2023-01-28T10:09:11;8.40;64.30
5192;DHT22;2615;44.524;11.284;2023-01-28T10:11:58;8.60;64.20
5192;DHT22;2615;44.524;11.284;2023-01-28T10:14:40;8.70;63.80
5192;DHT22;2615;44.524;11.284;2023-01-28T10:17:16;8.80;63.60
5192;DHT22;2615;44.524;11.284;2023-01-28T10:19:49;8.70;63.20
5192;DHT22;2615;44.524;11.284;2023-01-28T10:22:22;8.70;63.30
5192;DHT22;2615;44.524;11.284;2023-01-28T10:24:54;8.70;63.00
5192;DHT22;2615;44.524;11.284;2023-01-28T10:27:28;8.70;62.80
5192;DHT22;2615;44.524;11.284;2023-01-28T10:30:07;8.80;62.80
5192;DHT22;2615;44.524;11.284;2023-01-28T10:32:48;8.70;62.60
5192;DHT22;2615;44.524;11.284;2023-01-28T10:35:18;8.70;62.50
5192;DHT22;2615;44.524;11.284;2023-01-28T10:37:46;8.70;62.40
5192;DHT22;2615;44.524;11.284;2023-01-28T10:40:16;8.60;62.20
5192;DHT22;2615;44.524;11.284;2023-01-28T10:42:44;8.60;62.20
5192;DHT22;2615;44.524;11.284;2023-01-28T10:45:19;8.50;62.10
5192;DHT22;2615;44.524;11.284;2023-01-28T10:47:51;8.50;62.20
5192;DHT22;2615;44.524;11.284;2023-01-28T10:50:23;8.50;62.20
5192;DHT22;2615;44.524;11.284;2023-01-28T10:52:53;8.40;62.10
5192;DHT22;2615;44.524;11.284;2023-01-28T10:55:22;8.40;62.00
5192;DHT22;2615;44.524;11.284;2023-01-28T10:57:52;8.30;61.90
5192;DHT22;2615;44.524;11.284;2023-01-28T11:00:26;8.30;62.00
5192;DHT22;2615;44.524;11.284;2023-01-28T11:02:57;8.30;62.00
5192;DHT22;2615;44.524;11.284;2023-01-28T11:05:27;8.30;61.90
5192;DHT22;2615;44.524;11.284;2023-01-28T11:08:03;8.30;61.70
5192;DHT22;2615;44.524;11.284;2023-01-28T11:10:34;8.30;61.70
5192;DHT22;2615;44.524;11.284;2023-01-28T11:13:04;8.30;61.60
5192;DHT22;2615;44.524;11.284;2023-01-28T11:15:34;8.30;61.60
5192;DHT22;2615;44.524;11.284;2023-01-28T11:18:04;8.40;61.60
5192;DHT22;2615;44.524;11.284;2023-01-28T11:20:39;8.40;61.50
5192;DHT22;2615;44.524;11.284;2023-01-28T11:23:17;8.40;61.40
5192;DHT22;2615;44.524;11.284;2023-01-28T11:25:46;8.40;61.30
5192;DHT22;2615;44.524;11.284;2023-01-28T11:28:17;8.50;61.30
5192;DHT22;2615;44.524;11.284;2023-01-28T11:30:51;8.50;61.10
5192;DHT22;2615;44.524;11.284;2023-01-28T11:33:23;8.60;61.20
5192;DHT22;2615;44.524;11.284;2023-01-28T11:35:54;8.60;61.10
5192;DHT22;2615;44.524;11.284;2023-01-28T11:38:24;8.70;61.10
5192;DHT22;2615;44.524;11.284;2023-01-28T11:40:54;8.80;61.00
5192;DHT22;2615;44.524;11.284;2023-01-28T11:43:24;8.90;60.90
5192;DHT22;2615;44.524;11.284;2023-01-28T11:46:00;8.90;60.60
5192;DHT22;2615;44.524;11.284;2023-01-28T11:48:40;9.00;60.60
5192;DHT22;2615;44.524;11.284;2023-01-28T11:51:27;9.20;60.70
5192;DHT22;2615;44.524;11.284;2023-01-28T11:54:08;9.30;60.60
5192;DHT22;2615;44.524;11.284;2023-01-28T11:56:59;9.40;60.30
5192;DHT22;2615;44.524;11.284;2023-01-28T11:59:53;9.40;60.00
5192;DHT22;2615;44.524;11.284;2023-01-28T12:02:44;9.40;59.90
5192;DHT22;2615;44.524;11.284;2023-01-28T12:05:45;9.40;59.80
5192;DHT22;2615;44.524;11.284;2023-01-28T12:08:20;9.40;59.70
5192;DHT22;2615;44.524;11.284;2023-01-28T12:11:08;9.40;59.60
5192;DHT22;2615;44.524;11.284;2023-01-28T12:13:50;9.30;59.50
5192;DHT22;2615;44.524;11.284;2023-01-28T12:16:38;9.30;59.70
5192;DHT22;2615;44.524;11.284;2023-01-28T12:19:47;9.40;59.80
5192;DHT22;2615;44.524;11.284;2023-01-28T12:22:37;9.40;59.60
5192;DHT22;2615;44.524;11.284;2023-01-28T12:25:19;9.40;59.60
5192;DHT22;2615;44.524;11.284;2023-01-28T12:27:54;9.30;59.50
5192;DHT22;2615;44.524;11.284;2023-01-28T12:30:36;9.30;59.60
5192;DHT22;2615;44.524;11.284;2023-01-28T12:33:34;9.30;59.50
5192;DHT22;2615;44.524;11.284;2023-01-28T12:36:19;9.20;59.50
5192;DHT22;2615;44.524;11.284;2023-01-28T12:38:59;9.30;59.80
5192;DHT22;2615;44.524;11.284;2023-01-28T12:41:33;9.70;60.50
5192;DHT22;2615;44.524;11.284;2023-01-28T12:44:03;10.30;60.20
5192;DHT22;2615;44.524;11.284;2023-01-28T12:46:39;11.40;61.20
5192;DHT22;2615;44.524;11.284;2023-01-28T12:49:13;12.40;60.40
5192;DHT22;2615;44.524;11.284;2023-01-28T12:51:53;13.20;60.00
5192;DHT22;2615;44.524;11.284;2023-01-28T12:54:25;14.20;59.70
5192;DHT22;2615;44.524;11.284;2023-01-28T12:56:55;15.10;58.90
5192;DHT22;2615;44.524;11.284;2023-01-28T12:59:28;15.50;57.90
5192;DHT22;2615;44.524;11.284;2023-01-28T13:02:05;15.90;57.00
5192;DHT22;2615;44.524;11.284;2023-01-28T13:04:44;16.20;56.20
5192;DHT22;2615;44.524;11.284;2023-01-28T13:07:20;16.40;56.00
5192;DHT22;2615;44.524;11.284;2023-01-28T13:09:53;16.60;55.40
5192;DHT22;2615;44.524;11.284;2023-01-28T13:12:25;17.00;55.40
5192;DHT22;2615;44.524;11.284;2023-01-28T13:14:53;17.60;55.00
5192;DHT22;2615;44.524;11.284;2023-01-28T13:19:54;17.70;89.30
5192;DHT22;2615;44.524;11.284;2023-01-28T13:22:28;18.90;53.10
5192;DHT22;2615;44.524;11.284;2023-01-28T13:24:56;19.30;52.10
5192;DHT22;2615;44.524;11.284;2023-01-28T13:27:27;19.50;51.50
5192;DHT22;2615;44.524;11.284;2023-01-28T13:30:05;19.60;50.90
5192;DHT22;2615;44.524;11.284;2023-01-28T13:32:34;19.70;49.90
5192;DHT22;2615;44.524;11.284;2023-01-28T13:35:05;19.70;49.90
5192;DHT22;2615;44.524;11.284;2023-01-28T13:37:38;19.60;49.20
5192;DHT22;2615;44.524;11.284;2023-01-28T13:40:22;19.30;48.60
5192;DHT22;2615;44.524;11.284;2023-01-28T13:42:59;18.90;47.60
5192;DHT22;2615;44.524;11.284;2023-01-28T13:45:28;18.20;47.10
5192;DHT22;2615;44.524;11.284;2023-01-28T13:48:12;17.40;47.20
5192;DHT22;2615;44.524;11.284;2023-01-28T13:50:42;16.80;47.50
5192;DHT22;2615;44.524;11.284;2023-01-28T13:53:24;16.50;48.10
5192;DHT22;2615;44.524;11.284;2023-01-28T13:55:57;16.50;48.10
5192;DHT22;2615;44.524;11.284;2023-01-28T14:01:52;16.50;47.80
5192;DHT22;2615;44.524;11.284;2023-01-28T14:07:41;16.10;47.30
5192;DHT22;2615;44.524;11.284;2023-01-28T14:10:27;15.70;47.20
5192;DHT22;2615;44.524;11.284;2023-01-28T14:13:29;15.30;47.30
5192;DHT22;2615;44.524;11.284;2023-01-28T14:16:20;14.80;47.20
5192;DHT22;2615;44.524;11.284;2023-01-28T14:18:51;14.60;47.50
5192;DHT22;2615;44.524;11.284;2023-01-28T14:21:20;14.50;47.70
5192;DHT22;2615;44.524;11.284;2023-01-28T14:23:50;14.30;47.60
5192;DHT22;2615;44.524;11.284;2023-01-28T14:26:28;14.20;47.70
5192;DHT22;2615;44.524;11.284;2023-01-28T14:31:49;14.30;48.00
5192;DHT22;2615;44.524;11.284;2023-01-28T14:34:22;14.30;47.50
5192;DHT22;2615;44.524;11.284;2023-01-28T14:36:54;14.20;47.30
5192;DHT22;2615;44.524;11.284;2023-01-28T14:39:25;14.30;47.40
5192;DHT22;2615;44.524;11.284;2023-01-28T14:41:58;14.30;47.40
5192;DHT22;2615;44.524;11.284;2023-01-28T14:44:30;14.30;47.20
5192;DHT22;2615;44.524;11.284;2023-01-28T14:47:30;14.30;47.30
5192;DHT22;2615;44.524;11.284;2023-01-28T14:50:15;14.30;47.10
5192;DHT22;2615;44.524;11.284;2023-01-28T14:53:01;14.20;47.30
5192;DHT22;2615;44.524;11.284;2023-01-28T14:55:41;14.20;47.20
5192;DHT22;2615;44.524;11.284;2023-01-28T14:58:17;13.80;46.90
5192;DHT22;2615;44.524;11.284;2023-01-28T15:00:53;13.60;47.30
5192;DHT22;2615;44.524;11.284;2023-01-28T15:03:21;13.40;47.30
5192;DHT22;2615;44.524;11.284;2023-01-28T15:06:01;13.20;47.50
5192;DHT22;2615;44.524;11.284;2023-01-28T15:08:30;13.00;47.50
5192;DHT22;2615;44.524;11.284;2023-01-28T15:11:00;12.90;47.80
5192;DHT22;2615;44.524;11.284;2023-01-28T15:13:33;12.80;47.90
5192;DHT22;2615;44.524;11.284;2023-01-28T15:16:04;12.70;48.00
5192;DHT22;2615;44.524;11.284;2023-01-28T15:18:36;12.80;48.20
5192;DHT22;2615;44.524;11.284;2023-01-28T15:21:04;12.90;48.30
5192;DHT22;2615;44.524;11.284;2023-01-28T15:23:35;12.90;48.20
5192;DHT22;2615;44.524;11.284;2023-01-28T15:26:05;12.70;47.80
5192;DHT22;2615;44.524;11.284;2023-01-28T15:28:37;12.40;47.70
5192;DHT22;2615;44.524;11.284;2023-01-28T15:31:05;12.10;47.70
5192;DHT22;2615;44.524;11.284;2023-01-28T15:33:34;11.80;47.80
5192;DHT22;2615;44.524;11.284;2023-01-28T15:36:02;11.50;47.90
5192;DHT22;2615;44.524;11.284;2023-01-28T15:38:32;11.20;48.00
5192;DHT22;2615;44.524;11.284;2023-01-28T15:41:01;10.90;48.30
5192;DHT22;2615;44.524;11.284;2023-01-28T15:43:31;10.70;48.50
5192;DHT22;2615;44.524;11.284;2023-01-28T15:46:02;10.50;48.70
5192;DHT22;2615;44.524;11.284;2023-01-28T15:48:32;10.30;48.80
5192;DHT22;2615;44.524;11.284;2023-01-28T15:51:02;10.20;49.00
5192;DHT22;2615;44.524;11.284;2023-01-28T15:53:33;10.10;49.10
5192;DHT22;2615;44.524;11.284;2023-01-28T15:56:06;9.90;50.00
5192;DHT22;2615;44.524;11.284;2023-01-28T15:58:35;9.90;50.30
5192;DHT22;2615;44.524;11.284;2023-01-28T16:01:18;9.70;50.30
5192;DHT22;2615;44.524;11.284;2023-01-28T16:03:58;9.60;50.40
5192;DHT22;2615;44.524;11.284;2023-01-28T16:06:33;9.60;50.60
5192;DHT22;2615;44.524;11.284;2023-01-28T16:09:04;9.50;50.70
5192;DHT22;2615;44.524;11.284;2023-01-28T16:11:36;9.40;50.70
5192;DHT22;2615;44.524;11.284;2023-01-28T16:14:21;9.30;50.80
5192;DHT22;2615;44.524;11.284;2023-01-28T16:16:53;9.10;51.40
5192;DHT22;2615;44.524;11.284;2023-01-28T16:19:30;9.00;51.00
5192;DHT22;2615;44.524;11.284;2023-01-28T16:22:00;9.00;51.20
5192;DHT22;2615;44.524;11.284;2023-01-28T16:24:30;8.90;51.40
5192;DHT22;2615;44.524;11.284;2023-01-28T16:27:03;8.80;51.50
5192;DHT22;2615;44.524;11.284;2023-01-28T16:29:33;8.80;51.70
5192;DHT22;2615;44.524;11.284;2023-01-28T16:32:03;8.70;51.60
5192;DHT22;2615;44.524;11.284;2023-01-28T16:34:51;8.60;51.70
5192;DHT22;2615;44.524;11.284;2023-01-28T16:37:20;8.60;51.90
5192;DHT22;2615;44.524;11.284;2023-01-28T16:39:48;8.50;51.90
5192;DHT22;2615;44.524;11.284;2023-01-28T16:42:17;8.50;52.00
5192;DHT22;2615;44.524;11.284;2023-01-28T16:44:45;8.50;52.10
5192;DHT22;2615;44.524;11.284;2023-01-28T16:47:15;8.40;52.10